This is the latest recevied weather packets stored in our database for station/object DB0HOL-4. If no packets are shown the sender has not sent any weather packets the latest 10 day(s).
| Time | Temp. | Humidity | Pressure | Rain* | Wind** | Luminosity | Snow |
|---|---|---|---|---|---|---|---|
| 1777859797 | 12.78° C | 77% | 1009.4 hPa | 0 mm | - | 0 W/m² | - |
| 1777857997 | 12.78° C | 76% | 1009.4 hPa | 0 mm | - | 0 W/m² | - |
| 1777856197 | 13.33° C | 75% | 1009.4 hPa | 0 mm | - | 0 W/m² | - |
| 1777854397 | 13.33° C | 76% | 1009.8 hPa | 0 mm | - | 0 W/m² | - |
| 1777852597 | 13.89° C | 74% | 1009.4 hPa | 0 mm | - | 0 W/m² | - |
| 1777850796 | 13.89° C | 74% | 1009.4 hPa | 0 mm | - | 0 W/m² | - |
| 1777845396 | 15° C | 72% | 1009.4 hPa | 0 mm | - | 0 W/m² | - |
| 1777843597 | 15.56° C | 69% | 1009.4 hPa | 0 mm | - | 0 W/m² | - |
| 1777841797 | 16.11° C | 67% | 1009.4 hPa | 0 mm | - | 0 W/m² | - |
| 1777839997 | 16.11° C | 65% | 1009.4 hPa | 0 mm | - | 0 W/m² | - |
| 1777838197 | 16.11° C | 64% | 1009.1 hPa | 0 mm | - | 0 W/m² | - |
| 1777836397 | 16.11° C | 62% | 1008.8 hPa | 0 mm | - | 0 W/m² | - |
| 1777834597 | 17.22° C | 59% | 1008.4 hPa | 0 mm | - | 73 W/m² | - |
| 1777832798 | 17.78° C | 57% | 1008.1 hPa | 0 mm | - | 147 W/m² | - |
| 1777830997 | 18.89° C | 52% | 1008.1 hPa | 0 mm | - | 442 W/m² | - |
| 1777829197 | 18.89° C | 45% | 1008.1 hPa | 0 mm | - | 832 W/m² | - |
| 1777827396 | 18.89° C | 48% | 1007.7 hPa | 0 mm | - | 123 W/m² | - |
| 1777825597 | 18.89° C | 50% | 1007.7 hPa | 0 mm | - | 102 W/m² | - |
| 1777823796 | 19.44° C | 48% | 1008.1 hPa | 0 mm | - | 677 W/m² | - |
| 1777821997 | 20.56° C | 45% | 1008.1 hPa | 0 mm | - | 125 W/m² | - |
| 1777820197 | 21.67° C | 40% | 1007.4 hPa | 0 mm | - | 163 W/m² | - |
| 1777818397 | 21.67° C | 41% | 1008.1 hPa | 0 mm | - | 563 W/m² | - |
| 1777816597 | 21.11° C | 45% | 1008.4 hPa | 0 mm | - | 663 W/m² | - |
| 1777814797 | 20.56° C | 43% | 1008.4 hPa | 0 mm | - | 284 W/m² | - |
| 1777812997 | 20.56° C | 46% | 1008.8 hPa | 0 mm | - | 264 W/m² | - |
* Rain latest hour (hover to see other rain measurements)
** Current wind speed in m/s (hover to see current wind gust speed)